Time;durP1;ratioP1;P1;durP2;ratioP2;P2;SDS_P1;SDS_P2;PMS_P1;PMS_P2;Temp;Humidity;BMP_temperature;BMP_pressure;BME280_temperature;BME280_humidity;BME280_pressure;Samples;Min_cycle;Max_cycle;Signal;HPM_P1;HPM_P2
2023/10/24 00:01:43;;;;;;;1.35;1.25;;;;;;;;;;5074522;28;20193;-87
2023/10/24 00:04:12;;;;;;;0.95;0.93;;;;;;;;;;5074070;28;20205;-88
2023/10/24 00:06:40;;;;;;;1.27;1.20;;;;;;;;;;5074828;28;20215;-90
2023/10/24 00:09:07;;;;;;;0.93;0.90;;;;;;;;;;5068037;28;20227;-89
2023/10/24 00:11:36;;;;;;;1.02;0.90;;;;;;;;;;5074267;28;20197;-89
2023/10/24 00:14:04;;;;;;;1.60;1.15;;;;;;;;;;5068755;28;20283;-88
2023/10/24 00:16:32;;;;;;;1.35;1.17;;;;;;;;;;5074600;28;20312;-89
2023/10/24 00:18:59;;;;;;;0.95;0.82;;;;;;;;;;5063294;28;20285;-88
2023/10/24 00:21:27;;;;;;;1.65;1.55;;;;;;;;;;5065599;28;20280;-89
2023/10/24 00:23:54;;;;;;;3.80;1.13;;;;;;;;;;5068408;28;20228;-90
2023/10/24 00:26:22;;;;;;;1.05;0.95;;;;;;;;;;5075741;28;20239;-89
2023/10/24 00:28:51;;;;;;;1.17;1.08;;;;;;;;;;5076751;28;20265;-88
2023/10/24 00:31:18;;;;;;;1.55;1.00;;;;;;;;;;5076861;28;20228;-89
2023/10/24 00:33:46;;;;;;;1.42;1.20;;;;;;;;;;5071295;28;20200;-90
2023/10/24 00:36:13;;;;;;;2.83;1.25;;;;;;;;;;5073478;28;20231;-90
2023/10/24 00:38:41;;;;;;;1.63;1.40;;;;;;;;;;5073867;28;20217;-90
2023/10/24 00:41:08;;;;;;;1.02;1.00;;;;;;;;;;5074456;28;20204;-90
2023/10/24 00:43:36;;;;;;;1.30;1.20;;;;;;;;;;5073603;28;20316;-89
2023/10/24 00:46:06;;;;;;;1.05;0.95;;;;;;;;;;5073592;28;20273;-89
2023/10/24 00:48:34;;;;;;;0.80;0.80;;;;;;;;;;5074400;28;20232;-89
2023/10/24 00:51:02;;;;;;;1.55;0.90;;;;;;;;;;5073214;28;20288;-89
2023/10/24 00:53:30;;;;;;;1.58;1.23;;;;;;;;;;5073363;28;20640;-90
2023/10/24 00:55:58;;;;;;;1.25;0.95;;;;;;;;;;5073151;28;20645;-90
2023/10/24 00:58:26;;;;;;;1.77;1.65;;;;;;;;;;5073370;28;20719;-88
2023/10/24 01:00:54;;;;;;;2.95;1.40;;;;;;;;;;5073789;28;20666;-89
2023/10/24 01:03:23;;;;;;;1.13;1.00;;;;;;;;;;5077005;28;20599;-87
2023/10/24 01:05:51;;;;;;;1.20;1.10;;;;;;;;;;5076986;28;20217;-89
2023/10/24 01:08:19;;;;;;;1.33;1.08;;;;;;;;;;5076915;28;20219;-89
2023/10/24 01:10:46;;;;;;;1.23;1.08;;;;;;;;;;5076868;28;20289;-90
2023/10/24 01:13:14;;;;;;;1.33;1.15;;;;;;;;;;5076344;28;20640;-90
2023/10/24 01:15:41;;;;;;;1.80;1.30;;;;;;;;;;5076883;28;20291;-90
2023/10/24 01:18:09;;;;;;;1.20;1.10;;;;;;;;;;5076213;28;20316;-90
2023/10/24 01:20:39;;;;;;;1.20;1.10;;;;;;;;;;5077095;28;20244;-89
2023/10/24 01:23:08;;;;;;;1.58;1.30;;;;;;;;;;5076588;28;20205;-90
2023/10/24 01:25:40;;;;;;;0.95;0.95;;;;;;;;;;5076453;28;20236;-90
2023/10/24 01:28:09;;;;;;;1.92;1.02;;;;;;;;;;5076786;28;20654;-90
2023/10/24 01:30:38;;;;;;;1.83;0.95;;;;;;;;;;5076631;28;20587;-89
2023/10/24 01:33:06;;;;;;;1.70;1.58;;;;;;;;;;5075769;28;20216;-89
2023/10/24 01:35:33;;;;;;;1.42;1.10;;;;;;;;;;5075994;28;20233;-89
2023/10/24 01:38:01;;;;;;;1.17;1.00;;;;;;;;;;5076128;28;20225;-89
2023/10/24 01:40:30;;;;;;;1.10;1.10;;;;;;;;;;5076224;28;20288;-89
2023/10/24 01:42:57;;;;;;;1.05;0.98;;;;;;;;;;5076305;28;20300;-89
2023/10/24 01:45:25;;;;;;;2.65;1.20;;;;;;;;;;5075492;28;20304;-90
2023/10/24 01:47:53;;;;;;;1.08;1.08;;;;;;;;;;5078441;28;20880;-90
2023/10/24 01:50:20;;;;;;;3.20;1.30;;;;;;;;;;5076117;28;20232;-89
2023/10/24 01:52:48;;;;;;;2.33;1.20;;;;;;;;;;5075616;28;20197;-90
2023/10/24 01:55:16;;;;;;;0.98;0.93;;;;;;;;;;5075119;28;20682;-90
2023/10/24 01:57:45;;;;;;;0.88;0.88;;;;;;;;;;5076378;28;20227;-90
2023/10/24 02:00:14;;;;;;;1.10;1.00;;;;;;;;;;5075902;28;20201;-90
2023/10/24 02:02:42;;;;;;;1.15;0.90;;;;;;;;;;5075346;28;20280;-89
2023/10/24 02:05:12;;;;;;;1.48;1.23;;;;;;;;;;5075496;28;20622;-90
2023/10/24 02:07:39;;;;;;;1.10;1.00;;;;;;;;;;5080757;28;20261;-87
2023/10/24 02:10:08;;;;;;;1.10;1.00;;;;;;;;;;5099456;28;20223;-87
2023/10/24 02:12:36;;;;;;;3.08;1.42;;;;;;;;;;5098908;28;20197;-87
2023/10/24 02:15:07;;;;;;;1.63;1.10;;;;;;;;;;5096390;28;20201;-89
2023/10/24 02:17:35;;;;;;;1.55;1.13;;;;;;;;;;5075567;28;20201;-90
2023/10/24 02:20:04;;;;;;;1.77;1.17;;;;;;;;;;5076008;28;20597;-88
2023/10/24 02:22:31;;;;;;;1.25;0.98;;;;;;;;;;5075556;28;20197;-90
2023/10/24 02:24:59;;;;;;;2.90;1.38;;;;;;;;;;5075559;28;20286;-89
2023/10/24 02:27:27;;;;;;;1.17;1.05;;;;;;;;;;5075288;28;20225;-90
2023/10/24 02:29:54;;;;;;;1.70;1.30;;;;;;;;;;5075537;28;20291;-91
2023/10/24 02:32:23;;;;;;;1.20;1.10;;;;;;;;;;5075086;28;20261;-89
2023/10/24 02:34:51;;;;;;;1.45;1.35;;;;;;;;;;5074763;28;20227;-90
2023/10/24 02:37:19;;;;;;;1.63;1.08;;;;;;;;;;5075365;28;20283;-91
2023/10/24 02:39:47;;;;;;;2.22;1.48;;;;;;;;;;5075416;28;20308;-91
2023/10/24 02:42:14;;;;;;;0.85;0.73;;;;;;;;;;5075108;28;20208;-89
2023/10/24 02:44:42;;;;;;;1.17;0.90;;;;;;;;;;5074774;28;20730;-89
2023/10/24 02:47:09;;;;;;;1.58;1.15;;;;;;;;;;5075365;28;20201;-90
2023/10/24 02:49:38;;;;;;;1.17;1.05;;;;;;;;;;5075380;28;20208;-90
2023/10/24 02:52:06;;;;;;;0.93;0.90;;;;;;;;;;5077939;28;20232;-89
2023/10/24 02:54:34;;;;;;;3.42;1.20;;;;;;;;;;5075301;28;20292;-89
2023/10/24 02:57:02;;;;;;;1.20;1.10;;;;;;;;;;5075097;28;20193;-90
2023/10/24 02:59:30;;;;;;;0.98;0.98;;;;;;;;;;5074448;28;20228;-91
2023/10/24 03:01:58;;;;;;;0.90;0.90;;;;;;;;;;5074873;28;20232;-90
2023/10/24 03:04:25;;;;;;;1.77;1.02;;;;;;;;;;5076972;28;20244;-89
2023/10/24 03:06:54;;;;;;;1.23;0.95;;;;;;;;;;5075064;28;20205;-89
2023/10/24 03:09:22;;;;;;;1.42;0.93;;;;;;;;;;5074483;28;20239;-90
2023/10/24 03:11:49;;;;;;;1.00;0.93;;;;;;;;;;5074969;28;20262;-90
2023/10/24 03:14:17;;;;;;;1.00;0.90;;;;;;;;;;5074406;28;20584;-90
2023/10/24 03:16:45;;;;;;;2.53;1.20;;;;;;;;;;5074544;28;20652;-89
2023/10/24 03:19:12;;;;;;;1.85;0.98;;;;;;;;;;5068679;28;20230;-88
2023/10/24 03:21:56;;;;;;;0.98;0.80;;;;;;;;;;5030599;28;20219;-90
2023/10/24 03:24:24;;;;;;;0.90;0.90;;;;;;;;;;5073152;28;20376;-91
2023/10/24 03:26:51;;;;;;;1.48;1.15;;;;;;;;;;5074292;28;20239;-90
2023/10/24 03:29:19;;;;;;;0.77;0.60;;;;;;;;;;5074085;28;20682;-90
2023/10/24 03:31:46;;;;;;;0.57;0.57;;;;;;;;;;5074218;28;20205;-89
2023/10/24 03:34:14;;;;;;;1.77;0.95;;;;;;;;;;5074248;28;20204;-91
2023/10/24 03:36:41;;;;;;;0.90;0.85;;;;;;;;;;5074612;28;20225;-90
2023/10/24 03:39:10;;;;;;;1.00;1.00;;;;;;;;;;5074732;28;20229;-89
2023/10/24 03:41:38;;;;;;;1.20;1.10;;;;;;;;;;5074165;28;20208;-91
2023/10/24 03:44:06;;;;;;;0.90;0.90;;;;;;;;;;5073474;28;20308;-92
2023/10/24 03:46:34;;;;;;;1.08;0.95;;;;;;;;;;5078806;28;20203;-89
2023/10/24 03:49:02;;;;;;;1.13;1.10;;;;;;;;;;5074346;28;20680;-91
2023/10/24 03:51:29;;;;;;;1.58;1.20;;;;;;;;;;5074009;28;20216;-89
2023/10/24 03:53:57;;;;;;;1.05;0.90;;;;;;;;;;5070217;28;20955;-89
2023/10/24 03:56:27;;;;;;;1.88;1.35;;;;;;;;;;5073233;28;22004;-90
2023/10/24 03:58:54;;;;;;;1.65;1.20;;;;;;;;;;5073267;28;20259;-90
2023/10/24 04:01:22;;;;;;;0.70;0.70;;;;;;;;;;5073769;28;20232;-91
2023/10/24 04:03:49;;;;;;;2.13;1.60;;;;;;;;;;5073508;28;20201;-90
2023/10/24 04:06:17;;;;;;;1.63;1.50;;;;;;;;;;5077522;28;20296;-90
2023/10/24 04:08:44;;;;;;;1.60;1.40;;;;;;;;;;5073753;28;20296;-91
2023/10/24 04:11:15;;;;;;;2.25;1.77;;;;;;;;;;5074985;28;20234;-89
2023/10/24 04:13:45;;;;;;;1.30;1.20;;;;;;;;;;5073868;28;20228;-89
2023/10/24 04:16:13;;;;;;;2.75;1.30;;;;;;;;;;5073064;28;20225;-90
2023/10/24 04:18:41;;;;;;;1.50;1.30;;;;;;;;;;5072982;28;20216;-91
2023/10/24 04:26:12;;;;;;;2.90;1.90;;;;;;;;;;5091233;28;20216;-88
2023/10/24 04:28:40;;;;;;;2.78;1.60;;;;;;;;;;5093259;28;20251;-88
2023/10/24 04:31:09;;;;;;;1.90;1.80;;;;;;;;;;5079320;28;20235;-88
2023/10/24 04:33:36;;;;;;;10.43;1.90;;;;;;;;;;5071725;28;20201;-88
2023/10/24 04:36:05;;;;;;;2.42;2.22;;;;;;;;;;5074768;28;20292;-87
2023/10/24 04:38:32;;;;;;;1.88;1.60;;;;;;;;;;5074070;28;20196;-87
2023/10/24 04:41:00;;;;;;;2.15;1.95;;;;;;;;;;5075937;28;20305;-88
2023/10/24 04:43:27;;;;;;;1.70;1.60;;;;;;;;;;5075296;28;20540;-87
2023/10/24 04:45:55;;;;;;;2.38;2.03;;;;;;;;;;5075581;28;20291;-87
2023/10/24 04:48:24;;;;;;;1.67;1.50;;;;;;;;;;5076055;28;20228;-88
2023/10/24 04:50:51;;;;;;;3.70;1.50;;;;;;;;;;5075441;28;20221;-87
2023/10/24 04:53:19;;;;;;;2.65;1.70;;;;;;;;;;5075184;28;20204;-88
2023/10/24 04:55:46;;;;;;;2.15;1.70;;;;;;;;;;5075159;28;20283;-87
2023/10/24 04:58:14;;;;;;;1.85;1.60;;;;;;;;;;5075623;28;20296;-88
2023/10/24 05:00:42;;;;;;;1.20;1.20;;;;;;;;;;5075227;28;20224;-88
2023/10/24 05:03:09;;;;;;;2.67;1.50;;;;;;;;;;5075682;28;20632;-87
2023/10/24 05:05:38;;;;;;;1.77;1.67;;;;;;;;;;5075400;28;20246;-88
2023/10/24 05:08:10;;;;;;;1.70;1.60;;;;;;;;;;5075487;28;20234;-87
2023/10/24 05:10:37;;;;;;;2.05;1.60;;;;;;;;;;5074267;28;20317;-87
2023/10/24 05:13:06;;;;;;;2.97;2.40;;;;;;;;;;5075222;28;20275;-88
2023/10/24 05:15:33;;;;;;;1.73;1.52;;;;;;;;;;5074919;28;20736;-87
2023/10/24 05:18:01;;;;;;;1.83;1.73;;;;;;;;;;5074993;28;20193;-88
2023/10/24 05:20:29;;;;;;;1.95;1.77;;;;;;;;;;5074532;28;20308;-88
2023/10/24 05:22:57;;;;;;;3.83;2.20;;;;;;;;;;5074889;28;20734;-87
2023/10/24 05:25:25;;;;;;;2.28;2.08;;;;;;;;;;5073981;28;20300;-88
2023/10/24 05:27:52;;;;;;;2.47;2.28;;;;;;;;;;5074717;28;20195;-88
2023/10/24 05:30:21;;;;;;;2.45;2.25;;;;;;;;;;5074596;28;20305;-87
2023/10/24 05:32:49;;;;;;;2.45;2.25;;;;;;;;;;5068766;28;20212;-88
2023/10/24 05:35:16;;;;;;;2.22;2.00;;;;;;;;;;5074413;28;20260;-89
2023/10/24 05:37:44;;;;;;;2.33;2.13;;;;;;;;;;5068203;28;20193;-87
2023/10/24 05:40:13;;;;;;;3.03;1.75;;;;;;;;;;5074321;28;20604;-87
2023/10/24 05:42:41;;;;;;;1.98;1.88;;;;;;;;;;5074540;28;20662;-87
2023/10/24 05:45:10;;;;;;;2.03;1.83;;;;;;;;;;5074743;28;20655;-88
2023/10/24 05:47:38;;;;;;;2.20;2.00;;;;;;;;;;5074288;28;20197;-88
2023/10/24 05:50:07;;;;;;;3.67;2.30;;;;;;;;;;5075287;28;20337;-87
2023/10/24 05:52:34;;;;;;;2.65;2.45;;;;;;;;;;5073437;28;20193;-87
2023/10/24 05:55:02;;;;;;;2.10;2.00;;;;;;;;;;5074013;28;20629;-87
2023/10/24 05:57:31;;;;;;;2.20;2.00;;;;;;;;;;5074562;28;20197;-87
2023/10/24 05:59:58;;;;;;;2.08;1.80;;;;;;;;;;5074567;28;20320;-87
2023/10/24 06:02:26;;;;;;;2.42;1.77;;;;;;;;;;5073934;28;20205;-88
2023/10/24 06:04:53;;;;;;;3.42;2.80;;;;;;;;;;5073324;28;20199;-87
2023/10/24 06:07:21;;;;;;;2.25;2.10;;;;;;;;;;5074145;28;20714;-87
2023/10/24 06:09:49;;;;;;;4.00;3.08;;;;;;;;;;5074253;28;20201;-88
2023/10/24 06:12:16;;;;;;;3.20;2.90;;;;;;;;;;5080509;28;20718;-88
2023/10/24 06:14:45;;;;;;;2.25;2.05;;;;;;;;;;5079409;28;20678;-87
2023/10/24 06:17:17;;;;;;;2.50;2.28;;;;;;;;;;5077852;28;20304;-88
2023/10/24 06:19:46;;;;;;;2.28;2.10;;;;;;;;;;5077777;28;20201;-88
2023/10/24 06:22:14;;;;;;;2.72;2.53;;;;;;;;;;5078389;28;20209;-87
2023/10/24 06:24:41;;;;;;;2.65;2.22;;;;;;;;;;5074500;28;20754;-88
2023/10/24 06:27:10;;;;;;;2.60;2.28;;;;;;;;;;5074105;28;20297;-88
2023/10/24 06:29:38;;;;;;;3.17;2.88;;;;;;;;;;5073730;28;20212;-87
2023/10/24 06:32:08;;;;;;;3.10;2.55;;;;;;;;;;5074251;28;20228;-88
2023/10/24 06:34:36;;;;;;;3.33;3.03;;;;;;;;;;5072041;28;20650;-87
2023/10/24 06:37:04;;;;;;;2.58;2.30;;;;;;;;;;5098908;28;20185;-90
2023/10/24 06:39:31;;;;;;;2.80;2.60;;;;;;;;;;5098995;28;20203;-89
2023/10/24 06:41:59;;;;;;;2.40;2.20;;;;;;;;;;5099063;28;20233;-87
2023/10/24 06:44:28;;;;;;;3.08;2.10;;;;;;;;;;5098324;28;20207;-88
2023/10/24 06:46:55;;;;;;;3.92;2.60;;;;;;;;;;5099021;28;20185;-89
2023/10/24 06:49:24;;;;;;;2.45;2.13;;;;;;;;;;5091438;28;20233;-88
2023/10/24 06:51:52;;;;;;;3.05;2.53;;;;;;;;;;5085225;28;20244;-88
2023/10/24 06:54:20;;;;;;;2.30;2.10;;;;;;;;;;5081825;28;20202;-87
2023/10/24 06:56:47;;;;;;;2.22;2.13;;;;;;;;;;5078491;28;20205;-88
2023/10/24 06:59:15;;;;;;;1.98;1.80;;;;;;;;;;5076293;28;20584;-87
2023/10/24 07:01:42;;;;;;;1.75;1.50;;;;;;;;;;5075101;28;20225;-87
2023/10/24 07:04:10;;;;;;;2.58;2.38;;;;;;;;;;5073920;28;20197;-87
2023/10/24 07:06:39;;;;;;;2.60;2.40;;;;;;;;;;5074058;28;20201;-87
2023/10/24 07:09:06;;;;;;;2.50;2.30;;;;;;;;;;5073393;28;20241;-87
2023/10/24 07:11:34;;;;;;;1.63;1.52;;;;;;;;;;5072063;28;20308;-87
2023/10/24 07:14:01;;;;;;;2.20;1.98;;;;;;;;;;5073329;28;20301;-87
2023/10/24 07:16:29;;;;;;;1.90;1.80;;;;;;;;;;5072901;28;20297;-88
2023/10/24 07:18:56;;;;;;;2.03;1.83;;;;;;;;;;5072880;28;20215;-87
2023/10/24 07:21:24;;;;;;;1.73;1.63;;;;;;;;;;5072654;28;20749;-87
2023/10/24 07:23:54;;;;;;;1.60;1.50;;;;;;;;;;5066063;28;20204;-87
2023/10/24 07:26:22;;;;;;;2.05;1.88;;;;;;;;;;5066385;28;20197;-87
2023/10/24 07:28:49;;;;;;;2.00;1.90;;;;;;;;;;5073126;28;20338;-88
2023/10/24 07:31:17;;;;;;;2.22;2.03;;;;;;;;;;5072868;28;20304;-87
2023/10/24 07:33:46;;;;;;;1.92;1.65;;;;;;;;;;5072287;28;20193;-88
2023/10/24 07:36:13;;;;;;;2.67;2.47;;;;;;;;;;5072697;28;20212;-87
2023/10/24 07:38:41;;;;;;;2.58;2.38;;;;;;;;;;5073077;28;20239;-87
2023/10/24 07:41:11;;;;;;;2.17;2.00;;;;;;;;;;5072270;28;20241;-87
2023/10/24 07:43:39;;;;;;;2.78;2.33;;;;;;;;;;5071453;28;20193;-87
2023/10/24 07:46:06;;;;;;;2.65;2.45;;;;;;;;;;5071709;28;20315;-88
2023/10/24 07:48:34;;;;;;;1.95;1.85;;;;;;;;;;5070900;28;20276;-87
2023/10/24 07:51:02;;;;;;;2.30;2.10;;;;;;;;;;5071857;28;20285;-87
2023/10/24 07:53:30;;;;;;;2.72;2.53;;;;;;;;;;5072055;28;20286;-86
2023/10/24 07:55:57;;;;;;;2.63;2.38;;;;;;;;;;5073046;28;20235;-87
2023/10/24 07:58:26;;;;;;;2.30;2.10;;;;;;;;;;5072188;28;20585;-87
2023/10/24 08:00:54;;;;;;;1.90;1.80;;;;;;;;;;5072088;28;20706;-87
2023/10/24 08:03:21;;;;;;;2.33;2.13;;;;;;;;;;5071839;28;20205;-87
2023/10/24 08:05:49;;;;;;;2.47;2.28;;;;;;;;;;5072775;28;20637;-87
2023/10/24 08:08:16;;;;;;;4.13;3.15;;;;;;;;;;5072514;28;20197;-87
2023/10/24 08:14:45;;;;;;;3.15;2.85;;;;;;;;;;5052024;28;20232;-88
2023/10/24 08:17:13;;;;;;;2.90;2.70;;;;;;;;;;5035292;28;20325;-87
2023/10/24 08:19:40;;;;;;;2.55;2.08;;;;;;;;;;5034203;28;20353;-87
2023/10/24 08:22:10;;;;;;;3.00;2.78;;;;;;;;;;5036892;28;20652;-86
2023/10/24 08:24:39;;;;;;;2.60;2.40;;;;;;;;;;5037143;28;20236;-88
2023/10/24 08:27:07;;;;;;;3.05;2.75;;;;;;;;;;5037444;28;20225;-86
2023/10/24 08:29:35;;;;;;;4.68;3.22;;;;;;;;;;5037125;28;20233;-86
2023/10/24 08:32:05;;;;;;;2.13;2.03;;;;;;;;;;5038334;28;20202;-87
2023/10/24 08:34:36;;;;;;;3.10;2.83;;;;;;;;;;5037786;28;20186;-86
2023/10/24 08:37:05;;;;;;;1.80;1.70;;;;;;;;;;5038728;28;20313;-86
2023/10/24 08:39:33;;;;;;;2.90;2.63;;;;;;;;;;5045029;28;20288;-86
2023/10/24 08:42:08;;;;;;;3.15;2.90;;;;;;;;;;5056710;28;20264;-86
2023/10/24 08:44:37;;;;;;;2.85;2.65;;;;;;;;;;5057259;28;20188;-86
2023/10/24 08:47:06;;;;;;;2.42;2.20;;;;;;;;;;5057644;28;20233;-86
2023/10/24 08:49:34;;;;;;;3.80;2.90;;;;;;;;;;5057205;28;20622;-86
2023/10/24 08:52:03;;;;;;;2.58;2.38;;;;;;;;;;5043883;28;20222;-87
2023/10/24 08:54:32;;;;;;;2.50;2.30;;;;;;;;;;5037170;28;20198;-87
2023/10/24 08:57:01;;;;;;;2.08;1.98;;;;;;;;;;5037326;28;20700;-86
2023/10/24 08:59:32;;;;;;;1.90;1.80;;;;;;;;;;5018570;28;20210;-88
2023/10/24 09:02:00;;;;;;;6.47;2.67;;;;;;;;;;5038090;28;20222;-87
2023/10/24 09:04:31;;;;;;;2.13;1.92;;;;;;;;;;5020579;28;20628;-86
2023/10/24 09:06:59;;;;;;;1.60;1.50;;;;;;;;;;5037342;28;20218;-86
2023/10/24 09:09:27;;;;;;;2.28;2.08;;;;;;;;;;5019174;28;20234;-87
2023/10/24 09:11:58;;;;;;;1.58;1.48;;;;;;;;;;5037309;28;20206;-87
2023/10/24 09:14:28;;;;;;;2.50;1.70;;;;;;;;;;5037567;28;20225;-86
2023/10/24 09:16:58;;;;;;;1.50;1.40;;;;;;;;;;5038277;28;20284;-86
2023/10/24 09:19:28;;;;;;;1.40;1.30;;;;;;;;;;5036777;28;20190;-88
2023/10/24 09:21:57;;;;;;;2.92;2.55;;;;;;;;;;5037627;28;20215;-88
2023/10/24 09:24:25;;;;;;;3.15;2.55;;;;;;;;;;5040296;28;20195;-87
2023/10/24 09:26:54;;;;;;;2.25;2.05;;;;;;;;;;5022834;28;20319;-87
2023/10/24 09:29:24;;;;;;;2.00;1.80;;;;;;;;;;5040183;28;20460;-87
2023/10/24 09:31:53;;;;;;;1.77;1.67;;;;;;;;;;5040580;28;20211;-87
2023/10/24 09:34:24;;;;;;;1.52;1.42;;;;;;;;;;5040075;28;20226;-88
2023/10/24 09:37:10;;;;;;;1.45;1.35;;;;;;;;;;5023371;28;20218;-86
2023/10/24 09:39:54;;;;;;;1.15;1.13;;;;;;;;;;5023686;28;20260;-87
2023/10/24 09:42:28;;;;;;;1.27;1.20;;;;;;;;;;5040070;28;20602;-88
2023/10/24 09:45:00;;;;;;;1.55;1.45;;;;;;;;;;5040127;28;20205;-87
2023/10/24 09:47:29;;;;;;;1.63;1.52;;;;;;;;;;5039211;28;20222;-86
2023/10/24 09:49:58;;;;;;;1.48;1.38;;;;;;;;;;5039528;28;20191;-86
2023/10/24 09:52:29;;;;;;;1.95;1.83;;;;;;;;;;5039420;28;20221;-86
2023/10/24 09:54:58;;;;;;;1.58;1.20;;;;;;;;;;5039338;28;20209;-87
2023/10/24 09:57:26;;;;;;;1.67;1.58;;;;;;;;;;5040134;28;20214;-86
2023/10/24 09:59:55;;;;;;;1.50;1.40;;;;;;;;;;5040200;28;20206;-86
2023/10/24 10:02:25;;;;;;;1.45;1.35;;;;;;;;;;5040049;28;20226;-86
2023/10/24 10:04:53;;;;;;;2.38;1.45;;;;;;;;;;5038670;28;20211;-87
2023/10/24 10:07:22;;;;;;;2.15;1.20;;;;;;;;;;5021720;28;20751;-88
2023/10/24 10:09:54;;;;;;;1.60;1.50;;;;;;;;;;5039474;28;20193;-87
2023/10/24 10:12:22;;;;;;;1.50;1.40;;;;;;;;;;5039104;28;20199;-87
2023/10/24 10:15:21;;;;;;;1.50;1.40;;;;;;;;;;5038517;28;20582;-87
2023/10/24 10:17:59;;;;;;;1.70;1.60;;;;;;;;;;5039918;28;20217;-87
2023/10/24 10:20:56;;;;;;;1.05;1.05;;;;;;;;;;5039133;28;20559;-87
2023/10/24 10:23:51;;;;;;;4.20;1.10;;;;;;;;;;5038984;28;20207;-87
2023/10/24 10:26:26;;;;;;;1.15;1.15;;;;;;;;;;5036167;28;20198;-87
2023/10/24 10:29:06;;;;;;;1.50;1.40;;;;;;;;;;5038584;28;20252;-86
2023/10/24 10:32:06;;;;;;;1.70;1.60;;;;;;;;;;5037685;28;20275;-86
2023/10/24 10:34:35;;;;;;;1.30;1.20;;;;;;;;;;5037673;28;20194;-87
2023/10/24 10:37:03;;;;;;;1.70;1.60;;;;;;;;;;5038394;28;20226;-86
2023/10/24 10:39:30;;;;;;;1.02;1.00;;;;;;;;;;5038209;28;20291;-86
2023/10/24 10:41:59;;;;;;;1.45;1.23;;;;;;;;;;5037743;28;20203;-86
2023/10/24 10:44:40;;;;;;;1.55;1.00;;;;;;;;;;5037958;28;20331;-86
2023/10/24 10:47:10;;;;;;;1.33;1.20;;;;;;;;;;5038457;28;20688;-87
2023/10/24 10:49:48;;;;;;;2.92;1.50;;;;;;;;;;5039117;28;20277;-86
2023/10/24 10:52:45;;;;;;;2.10;1.90;;;;;;;;;;5038742;28;20175;-87
2023/10/24 10:55:39;;;;;;;1.40;1.30;;;;;;;;;;5038336;28;20648;-87
2023/10/24 10:58:31;;;;;;;1.40;1.30;;;;;;;;;;5035654;28;20222;-88
2023/10/24 11:01:04;;;;;;;1.40;1.30;;;;;;;;;;5036201;28;20237;-89
2023/10/24 11:03:43;;;;;;;1.80;1.70;;;;;;;;;;5037810;28;20230;-87
2023/10/24 11:06:14;;;;;;;1.60;1.50;;;;;;;;;;5038197;28;20611;-87
2023/10/24 11:08:42;;;;;;;2.75;2.33;;;;;;;;;;5037731;28;20217;-86
2023/10/24 11:11:11;;;;;;;2.92;2.72;;;;;;;;;;5037526;28;20195;-87
2023/10/24 11:13:43;;;;;;;3.17;2.50;;;;;;;;;;5037261;28;20245;-87
2023/10/24 11:16:11;;;;;;;2.03;1.83;;;;;;;;;;5036345;28;20233;-89
2023/10/24 11:18:41;;;;;;;2.03;1.80;;;;;;;;;;5037327;28;20298;-87
2023/10/24 11:21:12;;;;;;;1.83;1.73;;;;;;;;;;5037295;28;20198;-86
2023/10/24 11:23:42;;;;;;;2.13;1.85;;;;;;;;;;5037295;28;20214;-86
2023/10/24 11:26:10;;;;;;;3.72;2.30;;;;;;;;;;5035896;28;20205;-87
2023/10/24 11:28:39;;;;;;;2.55;1.88;;;;;;;;;;5036433;28;20726;-87
2023/10/24 11:31:21;;;;;;;2.05;1.85;;;;;;;;;;5035570;28;20206;-87
2023/10/24 11:33:49;;;;;;;1.95;1.83;;;;;;;;;;5036376;28;20277;-88
2023/10/24 11:36:16;;;;;;;2.17;1.90;;;;;;;;;;5035537;28;20277;-87
2023/10/24 11:38:45;;;;;;;2.63;2.13;;;;;;;;;;5035300;28;20226;-88
2023/10/24 11:41:12;;;;;;;1.58;1.40;;;;;;;;;;5035770;28;20262;-88
2023/10/24 11:43:41;;;;;;;2.10;1.90;;;;;;;;;;5036119;28;20313;-86
2023/10/24 11:46:09;;;;;;;1.80;1.70;;;;;;;;;;5034895;28;20229;-87
2023/10/24 11:48:36;;;;;;;2.05;1.95;;;;;;;;;;5036698;28;20229;-86
2023/10/24 11:51:04;;;;;;;1.98;1.88;;;;;;;;;;5036168;28;20230;-86
2023/10/24 11:53:33;;;;;;;1.75;1.65;;;;;;;;;;5035198;28;20281;-87
2023/10/24 11:56:01;;;;;;;2.38;2.05;;;;;;;;;;5035315;28;20236;-88
2023/10/24 11:58:35;;;;;;;2.20;2.05;;;;;;;;;;5036229;28;20739;-89
2023/10/24 12:01:04;;;;;;;2.10;1.90;;;;;;;;;;5035894;28;20281;-88
2023/10/24 12:03:45;;;;;;;1.98;1.40;;;;;;;;;;5045276;28;20253;-86
2023/10/24 12:06:13;;;;;;;1.77;1.67;;;;;;;;;;5056796;28;20688;-87
2023/10/24 12:08:42;;;;;;;2.17;2.08;;;;;;;;;;5056978;28;20194;-89
2023/10/24 12:11:10;;;;;;;3.65;3.30;;;;;;;;;;5056434;28;20205;-87
2023/10/24 12:13:38;;;;;;;2.33;2.13;;;;;;;;;;5055923;28;20224;-87
2023/10/24 12:16:08;;;;;;;2.90;2.40;;;;;;;;;;5057217;28;20630;-86
2023/10/24 12:18:38;;;;;;;2.28;2.08;;;;;;;;;;5057311;28;20269;-87
2023/10/24 12:21:07;;;;;;;2.08;1.95;;;;;;;;;;5056933;28;20687;-87
2023/10/24 12:23:35;;;;;;;2.28;2.08;;;;;;;;;;5057037;28;20201;-87
2023/10/24 12:26:04;;;;;;;3.08;2.10;;;;;;;;;;5057244;28;20205;-88
2023/10/24 12:28:32;;;;;;;2.20;2.10;;;;;;;;;;5056981;28;20199;-89
2023/10/24 12:31:00;;;;;;;2.38;2.08;;;;;;;;;;5057370;28;20238;-87
2023/10/24 12:33:28;;;;;;;3.72;2.45;;;;;;;;;;5056730;28;20189;-87
2023/10/24 12:35:56;;;;;;;2.38;2.10;;;;;;;;;;5057348;28;20284;-87
2023/10/24 12:38:24;;;;;;;2.38;2.17;;;;;;;;;;5059212;28;20221;-87
2023/10/24 12:40:51;;;;;;;2.17;1.92;;;;;;;;;;5056655;28;20676;-87
2023/10/24 12:43:19;;;;;;;2.20;2.10;;;;;;;;;;5056103;28;20197;-88
2023/10/24 12:45:47;;;;;;;2.28;2.00;;;;;;;;;;5054637;28;20308;-88
2023/10/24 12:48:14;;;;;;;2.42;1.90;;;;;;;;;;5054737;28;20244;-88
2023/10/24 12:50:44;;;;;;;2.05;1.92;;;;;;;;;;5046099;28;20221;-86
2023/10/24 12:53:12;;;;;;;2.58;2.38;;;;;;;;;;5034250;28;20289;-88
2023/10/24 12:55:40;;;;;;;1.50;1.40;;;;;;;;;;5034605;28;20644;-89
2023/10/24 12:58:08;;;;;;;2.35;2.13;;;;;;;;;;5038393;28;20280;-87
2023/10/24 13:00:36;;;;;;;1.65;1.55;;;;;;;;;;5038797;28;20617;-87
2023/10/24 13:03:03;;;;;;;2.03;1.80;;;;;;;;;;5038438;28;20226;-89
2023/10/24 13:05:31;;;;;;;1.75;1.65;;;;;;;;;;5038506;28;20214;-88
2023/10/24 13:08:00;;;;;;;1.40;1.30;;;;;;;;;;5038334;28;20668;-87
2023/10/24 13:10:28;;;;;;;1.73;1.63;;;;;;;;;;5037933;28;20332;-89
2023/10/24 13:12:55;;;;;;;1.75;1.65;;;;;;;;;;5037861;28;20286;-87
2023/10/24 13:15:23;;;;;;;3.38;1.80;;;;;;;;;;5037961;28;20241;-87
2023/10/24 13:17:51;;;;;;;1.70;1.60;;;;;;;;;;5038411;28;20299;-87
2023/10/24 13:20:20;;;;;;;1.70;1.60;;;;;;;;;;5038351;28;20264;-87
2023/10/24 13:22:47;;;;;;;1.58;1.48;;;;;;;;;;5037785;28;20230;-87
2023/10/24 13:25:16;;;;;;;2.95;1.98;;;;;;;;;;5037740;28;20242;-86
2023/10/24 13:27:44;;;;;;;1.65;1.55;;;;;;;;;;5038704;28;20219;-88
2023/10/24 13:30:14;;;;;;;2.35;1.63;;;;;;;;;;5038869;28;20207;-86
2023/10/24 13:32:42;;;;;;;1.50;1.40;;;;;;;;;;5038788;28;20203;-88
2023/10/24 13:35:13;;;;;;;1.92;1.83;;;;;;;;;;5038237;28;20195;-87
2023/10/24 13:37:43;;;;;;;1.95;1.55;;;;;;;;;;5022424;28;20236;-87
2023/10/24 13:40:12;;;;;;;2.05;1.90;;;;;;;;;;5038975;28;20205;-86
2023/10/24 13:42:41;;;;;;;2.05;1.85;;;;;;;;;;5036912;28;20209;-87
2023/10/24 13:45:11;;;;;;;1.60;1.50;;;;;;;;;;5037888;28;20226;-87
2023/10/24 13:47:39;;;;;;;2.08;1.98;;;;;;;;;;5038311;28;20601;-88
2023/10/24 13:50:09;;;;;;;1.70;1.60;;;;;;;;;;5038458;28;20297;-87
2023/10/24 13:52:37;;;;;;;2.65;2.10;;;;;;;;;;5020468;28;20186;-87
2023/10/24 13:55:09;;;;;;;2.05;1.75;;;;;;;;;;5037947;28;20293;-87
2023/10/24 13:57:43;;;;;;;2.00;1.63;;;;;;;;;;5038881;28;20245;-87
2023/10/24 14:00:13;;;;;;;2.00;1.90;;;;;;;;;;5038043;28;20200;-87
2023/10/24 14:02:42;;;;;;;2.22;2.13;;;;;;;;;;5037242;28;20205;-87
2023/10/24 14:05:10;;;;;;;7.07;2.17;;;;;;;;;;5020452;28;20296;-89
2023/10/24 14:07:38;;;;;;;3.35;2.00;;;;;;;;;;5036904;28;20222;-87
2023/10/24 14:10:08;;;;;;;2.75;2.55;;;;;;;;;;5045443;22;20304;-91
2023/10/24 14:12:35;;;;;;;1.75;1.60;;;;;;;;;;5032652;28;20644;-89
2023/10/24 14:15:05;;;;;;;2.30;2.08;;;;;;;;;;5037105;28;20210;-89
2023/10/24 14:17:33;;;;;;;1.75;1.65;;;;;;;;;;5038046;28;20212;-89
2023/10/24 14:20:00;;;;;;;2.38;2.20;;;;;;;;;;5036329;28;20462;-90
2023/10/24 14:22:28;;;;;;;2.97;2.67;;;;;;;;;;5037044;28;20229;-89
2023/10/24 14:24:55;;;;;;;1.98;1.88;;;;;;;;;;5036200;28;20664;-90
2023/10/24 14:27:23;;;;;;;1.60;1.50;;;;;;;;;;5036810;28;20266;-89
2023/10/24 14:29:50;;;;;;;1.70;1.60;;;;;;;;;;5034570;28;20588;-90
2023/10/24 14:32:20;;;;;;;1.58;1.48;;;;;;;;;;5030479;28;20226;-90
2023/10/24 14:34:48;;;;;;;2.00;1.80;;;;;;;;;;5016255;28;20199;-91
2023/10/24 14:37:16;;;;;;;1.80;1.67;;;;;;;;;;5029110;28;20229;-90
2023/10/24 14:39:44;;;;;;;1.70;1.60;;;;;;;;;;5036445;28;20580;-90
2023/10/24 14:42:11;;;;;;;1.90;1.80;;;;;;;;;;5039791;28;20290;-90
2023/10/24 14:44:40;;;;;;;1.52;1.45;;;;;;;;;;5035417;28;20493;-90
2023/10/24 14:47:08;;;;;;;1.80;1.70;;;;;;;;;;5028592;28;20313;-90
2023/10/24 14:49:37;;;;;;;1.98;1.88;;;;;;;;;;5034970;28;20260;-90
2023/10/24 14:52:06;;;;;;;2.65;2.35;;;;;;;;;;5024884;28;20247;-90
2023/10/24 14:54:33;;;;;;;1.50;1.40;;;;;;;;;;5020783;28;20286;-90
2023/10/24 14:57:01;;;;;;;1.30;1.25;;;;;;;;;;5033335;28;20210;-92
2023/10/24 14:59:28;;;;;;;1.75;1.63;;;;;;;;;;5023140;28;20248;-92
2023/10/24 15:01:56;;;;;;;1.55;1.48;;;;;;;;;;5036295;28;20229;-92
2023/10/24 15:04:24;;;;;;;1.40;1.30;;;;;;;;;;5036722;28;20293;-92